sensor_id;sensor_type;location;lat;lon;timestamp;pressure;altitude;pressure_sealevel;temperature;humidity
70555;BME280;58104;52.744;15.242;2023-05-16T00:00:33;100042.64;;;20.44;41.75
70555;BME280;58104;52.744;15.242;2023-05-16T00:02:58;100043.32;;;20.42;41.89
70555;BME280;58104;52.744;15.242;2023-05-16T00:05:23;100043.75;;;20.43;41.73
70555;BME280;58104;52.744;15.242;2023-05-16T00:07:49;100045.00;;;20.49;41.84
70555;BME280;58104;52.744;15.242;2023-05-16T00:10:14;100044.88;;;20.40;41.85
70555;BME280;58104;52.744;15.242;2023-05-16T00:12:40;100044.37;;;20.48;41.68
70555;BME280;58104;52.744;15.242;2023-05-16T00:15:06;100045.36;;;20.48;41.78
70555;BME280;58104;52.744;15.242;2023-05-16T00:17:30;100044.90;;;20.46;41.86
70555;BME280;58104;52.744;15.242;2023-05-16T00:19:56;100047.87;;;20.34;42.00
70555;BME280;58104;52.744;15.242;2023-05-16T00:22:21;100051.85;;;20.21;42.24
70555;BME280;58104;52.744;15.242;2023-05-16T00:24:47;100054.83;;;20.25;42.01
70555;BME280;58104;52.744;15.242;2023-05-16T00:27:13;100056.81;;;20.18;42.19
70555;BME280;58104;52.744;15.242;2023-05-16T00:29:38;100058.73;;;20.35;41.90
70555;BME280;58104;52.744;15.242;2023-05-16T00:32:04;100062.39;;;20.38;41.84
70555;BME280;58104;52.744;15.242;2023-05-16T00:34:28;100065.66;;;20.41;41.63
70555;BME280;58104;52.744;15.242;2023-05-16T00:36:54;100060.26;;;20.36;41.90
70555;BME280;58104;52.744;15.242;2023-05-16T00:39:19;100058.55;;;20.39;41.73
70555;BME280;58104;52.744;15.242;2023-05-16T00:41:45;100062.27;;;20.23;42.00
70555;BME280;58104;52.744;15.242;2023-05-16T00:44:10;100065.24;;;20.18;42.05
70555;BME280;58104;52.744;15.242;2023-05-16T00:46:35;100062.16;;;20.22;42.26
70555;BME280;58104;52.744;15.242;2023-05-16T00:49:01;100065.77;;;20.32;42.30
70555;BME280;58104;52.744;15.242;2023-05-16T00:51:26;100067.99;;;20.18;42.38
70555;BME280;58104;52.744;15.242;2023-05-16T00:53:52;100075.43;;;20.21;42.60
70555;BME280;58104;52.744;15.242;2023-05-16T00:56:17;100075.94;;;20.27;42.26
70555;BME280;58104;52.744;15.242;2023-05-16T00:58:43;100076.49;;;20.18;42.49
70555;BME280;58104;52.744;15.242;2023-05-16T01:01:08;100081.63;;;20.23;42.36
70555;BME280;58104;52.744;15.242;2023-05-16T01:03:34;100083.88;;;20.21;42.31
70555;BME280;58104;52.744;15.242;2023-05-16T01:05:59;100086.62;;;20.19;42.37
70555;BME280;58104;52.744;15.242;2023-05-16T01:08:25;100088.74;;;20.25;42.30
70555;BME280;58104;52.744;15.242;2023-05-16T01:10:59;100092.20;;;20.20;42.38
70555;BME280;58104;52.744;15.242;2023-05-16T01:13:20;100090.99;;;20.14;42.23
70555;BME280;58104;52.744;15.242;2023-05-16T01:15:45;100092.25;;;20.20;42.46
70555;BME280;58104;52.744;15.242;2023-05-16T01:18:11;100091.39;;;20.17;42.22
70555;BME280;58104;52.744;15.242;2023-05-16T01:20:39;100092.63;;;20.12;42.43
70555;BME280;58104;52.744;15.242;2023-05-16T01:23:05;100090.79;;;20.15;42.29
70555;BME280;58104;52.744;15.242;2023-05-16T01:25:34;100091.90;;;20.12;42.44
70555;BME280;58104;52.744;15.242;2023-05-16T01:27:49;100093.10;;;20.16;42.29
70555;BME280;58104;52.744;15.242;2023-05-16T01:30:16;100095.28;;;20.12;42.29
70555;BME280;58104;52.744;15.242;2023-05-16T01:32:39;100098.50;;;20.17;42.17
70555;BME280;58104;52.744;15.242;2023-05-16T01:35:06;100099.52;;;19.92;42.50
70555;BME280;58104;52.744;15.242;2023-05-16T01:37:35;100107.11;;;19.92;42.55
70555;BME280;58104;52.744;15.242;2023-05-16T01:39:58;100108.36;;;19.92;42.48
70555;BME280;58104;52.744;15.242;2023-05-16T01:42:26;100113.82;;;20.11;42.17
70555;BME280;58104;52.744;15.242;2023-05-16T01:44:51;100122.67;;;20.12;42.14
70555;BME280;58104;52.744;15.242;2023-05-16T01:47:13;100119.72;;;20.17;41.98
70555;BME280;58104;52.744;15.242;2023-05-16T01:49:42;100126.55;;;20.21;41.81
70555;BME280;58104;52.744;15.242;2023-05-16T01:52:07;100132.45;;;20.22;41.75
70555;BME280;58104;52.744;15.242;2023-05-16T01:54:31;100131.90;;;20.11;41.94
70555;BME280;58104;52.744;15.242;2023-05-16T01:56:55;100136.77;;;20.06;42.02
70555;BME280;58104;52.744;15.242;2023-05-16T01:59:21;100141.43;;;20.06;42.20
70555;BME280;58104;52.744;15.242;2023-05-16T02:01:45;100136.62;;;19.98;42.28
70555;BME280;58104;52.744;15.242;2023-05-16T02:04:10;100133.72;;;19.82;42.59
70555;BME280;58104;52.744;15.242;2023-05-16T02:06:35;100132.86;;;19.88;42.53
70555;BME280;58104;52.744;15.242;2023-05-16T02:09:00;100136.75;;;19.78;42.58
70555;BME280;58104;52.744;15.242;2023-05-16T02:11:25;100138.54;;;19.82;42.71
70555;BME280;58104;52.744;15.242;2023-05-16T02:13:51;100138.99;;;19.95;42.43
70555;BME280;58104;52.744;15.242;2023-05-16T02:16:16;100142.22;;;19.94;42.41
70555;BME280;58104;52.744;15.242;2023-05-16T02:18:41;100141.84;;;19.74;43.07
70555;BME280;58104;52.744;15.242;2023-05-16T02:21:07;100147.18;;;19.64;43.18
70555;BME280;58104;52.744;15.242;2023-05-16T02:23:32;100145.16;;;19.73;43.18
70555;BME280;58104;52.744;15.242;2023-05-16T02:25:57;100147.71;;;19.78;43.14
70555;BME280;58104;52.744;15.242;2023-05-16T02:28:23;100151.83;;;20.02;42.61
70555;BME280;58104;52.744;15.242;2023-05-16T02:30:56;100152.20;;;19.91;42.92
70555;BME280;58104;52.744;15.242;2023-05-16T02:33:13;100156.57;;;19.89;42.73
70555;BME280;58104;52.744;15.242;2023-05-16T02:35:39;100158.07;;;19.96;42.54
70555;BME280;58104;52.744;15.242;2023-05-16T02:38:04;100155.46;;;19.91;42.57
70555;BME280;58104;52.744;15.242;2023-05-16T02:40:29;100159.51;;;19.93;42.54
70555;BME280;58104;52.744;15.242;2023-05-16T02:42:55;100160.67;;;19.84;42.71
70555;BME280;58104;52.744;15.242;2023-05-16T02:45:20;100166.00;;;19.88;43.21
70555;BME280;58104;52.744;15.242;2023-05-16T02:47:46;100171.44;;;20.03;42.71
70555;BME280;58104;52.744;15.242;2023-05-16T02:50:11;100172.38;;;19.99;42.73
70555;BME280;58104;52.744;15.242;2023-05-16T02:52:36;100175.80;;;20.03;42.57
70555;BME280;58104;52.744;15.242;2023-05-16T02:55:02;100177.12;;;20.00;42.42
70555;BME280;58104;52.744;15.242;2023-05-16T02:57:27;100178.60;;;20.01;42.28
70555;BME280;58104;52.744;15.242;2023-05-16T02:59:53;100176.67;;;19.96;42.39
70555;BME280;58104;52.744;15.242;2023-05-16T03:02:18;100173.34;;;19.88;42.57
70555;BME280;58104;52.744;15.242;2023-05-16T03:04:44;100178.00;;;20.09;42.27
70555;BME280;58104;52.744;15.242;2023-05-16T03:07:09;100179.68;;;19.99;42.33
70555;BME280;58104;52.744;15.242;2023-05-16T03:09:35;100177.27;;;19.76;42.60
70555;BME280;58104;52.744;15.242;2023-05-16T03:12:00;100182.22;;;19.86;42.52
70555;BME280;58104;52.744;15.242;2023-05-16T03:14:26;100182.97;;;19.65;43.04
70555;BME280;58104;52.744;15.242;2023-05-16T03:16:51;100186.32;;;19.60;42.65
70555;BME280;58104;52.744;15.242;2023-05-16T03:19:17;100184.84;;;19.54;42.44
70555;BME280;58104;52.744;15.242;2023-05-16T03:21:42;100187.35;;;19.74;42.46
70555;BME280;58104;52.744;15.242;2023-05-16T03:24:08;100195.21;;;19.60;42.49
70555;BME280;58104;52.744;15.242;2023-05-16T03:26:33;100199.05;;;19.46;42.96
70555;BME280;58104;52.744;15.242;2023-05-16T03:28:59;100201.72;;;19.61;42.68
70555;BME280;58104;52.744;15.242;2023-05-16T03:31:24;100203.36;;;19.66;42.51
70555;BME280;58104;52.744;15.242;2023-05-16T03:33:50;100203.87;;;19.67;42.83
70555;BME280;58104;52.744;15.242;2023-05-16T03:36:15;100209.97;;;19.58;43.10
70555;BME280;58104;52.744;15.242;2023-05-16T03:38:41;100216.73;;;19.63;43.07
70555;BME280;58104;52.744;15.242;2023-05-16T03:41:06;100212.43;;;19.61;42.84
70555;BME280;58104;52.744;15.242;2023-05-16T03:43:32;100219.52;;;19.58;43.20
70555;BME280;58104;52.744;15.242;2023-05-16T03:45:57;100218.14;;;19.75;43.51
70555;BME280;58104;52.744;15.242;2023-05-16T03:48:22;100221.47;;;19.62;43.43
70555;BME280;58104;52.744;15.242;2023-05-16T03:50:47;100226.30;;;19.70;43.36
70555;BME280;58104;52.744;15.242;2023-05-16T03:53:13;100230.50;;;19.63;43.62
70555;BME280;58104;52.744;15.242;2023-05-16T03:55:38;100233.07;;;19.80;42.97
70555;BME280;58104;52.744;15.242;2023-05-16T03:58:04;100229.58;;;19.87;42.97
70555;BME280;58104;52.744;15.242;2023-05-16T04:00:29;100231.19;;;19.81;43.15
70555;BME280;58104;52.744;15.242;2023-05-16T04:02:54;100230.82;;;19.78;42.98
70555;BME280;58104;52.744;15.242;2023-05-16T04:05:20;100233.39;;;19.79;42.88
70555;BME280;58104;52.744;15.242;2023-05-16T04:07:45;100235.48;;;19.82;42.91
70555;BME280;58104;52.744;15.242;2023-05-16T04:10:11;100238.52;;;19.80;42.89
70555;BME280;58104;52.744;15.242;2023-05-16T04:12:36;100242.32;;;19.72;43.29
70555;BME280;58104;52.744;15.242;2023-05-16T04:15:01;100244.58;;;19.61;43.22
70555;BME280;58104;52.744;15.242;2023-05-16T04:17:26;100248.96;;;19.73;43.29
70555;BME280;58104;52.744;15.242;2023-05-16T04:19:52;100253.80;;;19.73;43.16
70555;BME280;58104;52.744;15.242;2023-05-16T04:22:19;100256.19;;;19.93;42.50
70555;BME280;58104;52.744;15.242;2023-05-16T04:24:43;100260.08;;;19.88;42.93
70555;BME280;58104;52.744;15.242;2023-05-16T04:27:08;100261.36;;;19.86;42.68
70555;BME280;58104;52.744;15.242;2023-05-16T04:29:34;100264.46;;;19.91;42.31
70555;BME280;58104;52.744;15.242;2023-05-16T04:31:59;100265.53;;;19.51;42.66
70555;BME280;58104;52.744;15.242;2023-05-16T04:34:25;100268.97;;;19.55;42.39
70555;BME280;58104;52.744;15.242;2023-05-16T04:36:50;100271.06;;;19.53;42.64
70555;BME280;58104;52.744;15.242;2023-05-16T04:39:16;100271.38;;;19.55;42.55
70555;BME280;58104;52.744;15.242;2023-05-16T04:41:41;100274.34;;;19.42;42.85
70555;BME280;58104;52.744;15.242;2023-05-16T04:44:07;100275.07;;;19.52;42.97
70555;BME280;58104;52.744;15.242;2023-05-16T04:46:32;100278.76;;;19.58;42.90
70555;BME280;58104;52.744;15.242;2023-05-16T04:48:58;100276.34;;;19.64;42.65
70555;BME280;58104;52.744;15.242;2023-05-16T04:51:23;100276.91;;;19.76;42.43
70555;BME280;58104;52.744;15.242;2023-05-16T04:53:49;100277.55;;;19.77;42.28
70555;BME280;58104;52.744;15.242;2023-05-16T04:56:15;100283.81;;;19.50;42.69
70555;BME280;58104;52.744;15.242;2023-05-16T04:58:40;100291.22;;;19.53;42.61
70555;BME280;58104;52.744;15.242;2023-05-16T05:01:06;100293.71;;;19.45;42.52
70555;BME280;58104;52.744;15.242;2023-05-16T05:03:31;100302.24;;;19.56;42.35
70555;BME280;58104;52.744;15.242;2023-05-16T05:05:57;100306.62;;;19.54;42.32
70555;BME280;58104;52.744;15.242;2023-05-16T05:08:22;100309.90;;;19.65;42.14
70555;BME280;58104;52.744;15.242;2023-05-16T05:10:48;100309.51;;;19.69;41.98
70555;BME280;58104;52.744;15.242;2023-05-16T05:13:13;100315.42;;;19.72;42.03
70555;BME280;58104;52.744;15.242;2023-05-16T05:15:39;100323.25;;;19.67;41.93
70555;BME280;58104;52.744;15.242;2023-05-16T05:18:04;100330.68;;;19.81;41.67
70555;BME280;58104;52.744;15.242;2023-05-16T05:20:29;100336.20;;;19.63;42.14
70555;BME280;58104;52.744;15.242;2023-05-16T05:22:55;100344.27;;;19.79;41.82
70555;BME280;58104;52.744;15.242;2023-05-16T05:25:20;100352.54;;;19.72;41.94
70555;BME280;58104;52.744;15.242;2023-05-16T05:27:45;100359.56;;;19.76;42.08
70555;BME280;58104;52.744;15.242;2023-05-16T05:30:11;100361.80;;;19.79;42.04
70555;BME280;58104;52.744;15.242;2023-05-16T05:32:36;100365.18;;;19.60;42.44
70555;BME280;58104;52.744;15.242;2023-05-16T05:35:01;100363.50;;;19.76;42.20
70555;BME280;58104;52.744;15.242;2023-05-16T05:37:26;100370.09;;;19.77;42.17
70555;BME280;58104;52.744;15.242;2023-05-16T05:39:52;100375.60;;;20.06;41.52
70555;BME280;58104;52.744;15.242;2023-05-16T05:42:18;100379.54;;;19.97;41.86
70555;BME280;58104;52.744;15.242;2023-05-16T05:44:43;100380.83;;;20.01;41.81
70555;BME280;58104;52.744;15.242;2023-05-16T05:47:08;100385.67;;;19.87;42.11
70555;BME280;58104;52.744;15.242;2023-05-16T05:49:33;100391.61;;;19.91;42.08
70555;BME280;58104;52.744;15.242;2023-05-16T05:51:59;100383.76;;;19.96;41.86
70555;BME280;58104;52.744;15.242;2023-05-16T05:54:24;100392.39;;;20.15;41.47
70555;BME280;58104;52.744;15.242;2023-05-16T05:56:50;100395.11;;;20.20;41.48
70555;BME280;58104;52.744;15.242;2023-05-16T05:59:15;100398.55;;;20.06;41.71
70555;BME280;58104;52.744;15.242;2023-05-16T06:01:41;100400.95;;;20.12;41.82
70555;BME280;58104;52.744;15.242;2023-05-16T06:04:06;100404.44;;;19.93;42.12
70555;BME280;58104;52.744;15.242;2023-05-16T06:06:31;100402.87;;;19.93;42.06
70555;BME280;58104;52.744;15.242;2023-05-16T06:08:57;100404.57;;;19.97;42.13
70555;BME280;58104;52.744;15.242;2023-05-16T06:11:23;100405.99;;;19.93;42.07
70555;BME280;58104;52.744;15.242;2023-05-16T06:13:48;100415.97;;;20.00;41.84
70555;BME280;58104;52.744;15.242;2023-05-16T06:16:14;100418.64;;;20.15;41.55
70555;BME280;58104;52.744;15.242;2023-05-16T06:18:39;100421.51;;;19.99;41.82
70555;BME280;58104;52.744;15.242;2023-05-16T06:21:05;100433.52;;;20.05;41.66
70555;BME280;58104;52.744;15.242;2023-05-16T06:23:30;100437.58;;;20.24;41.20
70555;BME280;58104;52.744;15.242;2023-05-16T06:25:56;100436.23;;;19.96;41.84
70555;BME280;58104;52.744;15.242;2023-05-16T06:28:21;100437.11;;;20.09;41.62
70555;BME280;58104;52.744;15.242;2023-05-16T06:30:47;100443.11;;;19.98;41.92
70555;BME280;58104;52.744;15.242;2023-05-16T06:33:13;100434.58;;;20.09;41.60
70555;BME280;58104;52.744;15.242;2023-05-16T06:35:38;100436.52;;;20.16;41.50
70555;BME280;58104;52.744;15.242;2023-05-16T06:38:03;100441.08;;;20.05;41.77
70555;BME280;58104;52.744;15.242;2023-05-16T06:40:29;100440.90;;;19.98;41.90
70555;BME280;58104;52.744;15.242;2023-05-16T06:42:54;100445.95;;;20.10;41.88
70555;BME280;58104;52.744;15.242;2023-05-16T06:45:20;100452.51;;;20.02;42.13
70555;BME280;58104;52.744;15.242;2023-05-16T06:47:45;100460.58;;;20.05;42.07
70555;BME280;58104;52.744;15.242;2023-05-16T06:50:11;100461.04;;;20.20;41.71
70555;BME280;58104;52.744;15.242;2023-05-16T06:52:36;100466.24;;;20.21;41.79
70555;BME280;58104;52.744;15.242;2023-05-16T06:55:02;100470.65;;;20.23;41.74
70555;BME280;58104;52.744;15.242;2023-05-16T06:57:28;100468.01;;;20.25;41.56
70555;BME280;58104;52.744;15.242;2023-05-16T06:59:53;100467.06;;;20.22;41.77
70555;BME280;58104;52.744;15.242;2023-05-16T07:02:18;100465.32;;;20.38;41.40
70555;BME280;58104;52.744;15.242;2023-05-16T07:04:43;100469.81;;;20.41;41.56
70555;BME280;58104;52.744;15.242;2023-05-16T07:07:09;100468.10;;;20.39;41.60
70555;BME280;58104;52.744;15.242;2023-05-16T07:09:34;100474.35;;;20.30;41.69
70555;BME280;58104;52.744;15.242;2023-05-16T07:12:00;100474.86;;;20.53;40.96
70555;BME280;58104;52.744;15.242;2023-05-16T07:14:26;100478.32;;;20.66;41.06
70555;BME280;58104;52.744;15.242;2023-05-16T07:16:51;100485.75;;;20.72;40.94
70555;BME280;58104;52.744;15.242;2023-05-16T07:19:17;100489.32;;;20.80;40.41
70555;BME280;58104;52.744;15.242;2023-05-16T07:21:42;100495.82;;;20.75;40.67
70555;BME280;58104;52.744;15.242;2023-05-16T07:24:07;100501.05;;;20.62;40.94
70555;BME280;58104;52.744;15.242;2023-05-16T07:26:33;100502.35;;;20.50;40.91
70555;BME280;58104;52.744;15.242;2023-05-16T07:28:58;100510.60;;;20.47;41.31
70555;BME280;58104;52.744;15.242;2023-05-16T07:31:24;100511.58;;;20.46;41.01
70555;BME280;58104;52.744;15.242;2023-05-16T07:33:50;100513.08;;;20.50;41.12
70555;BME280;58104;52.744;15.242;2023-05-16T07:36:15;100519.41;;;20.56;40.84
70555;BME280;58104;52.744;15.242;2023-05-16T07:38:41;100517.07;;;20.73;40.48
70555;BME280;58104;52.744;15.242;2023-05-16T07:41:06;100521.35;;;20.63;40.99
70555;BME280;58104;52.744;15.242;2023-05-16T07:43:32;100519.72;;;20.59;41.08
70555;BME280;58104;52.744;15.242;2023-05-16T07:45:58;100529.08;;;20.43;41.49
70555;BME280;58104;52.744;15.242;2023-05-16T07:48:23;100529.86;;;20.61;41.25
70555;BME280;58104;52.744;15.242;2023-05-16T07:50:49;100527.52;;;20.66;41.01
70555;BME280;58104;52.744;15.242;2023-05-16T07:53:14;100528.22;;;20.70;40.95
70555;BME280;58104;52.744;15.242;2023-05-16T07:55:40;100532.88;;;20.61;41.05
70555;BME280;58104;52.744;15.242;2023-05-16T07:58:05;100525.30;;;20.74;40.44
70555;BME280;58104;52.744;15.242;2023-05-16T08:00:31;100529.69;;;20.85;40.39
70555;BME280;58104;52.744;15.242;2023-05-16T08:02:57;100535.08;;;20.84;40.48
70555;BME280;58104;52.744;15.242;2023-05-16T08:05:22;100544.70;;;20.72;40.73
70555;BME280;58104;52.744;15.242;2023-05-16T08:07:47;100544.01;;;20.84;40.46
70555;BME280;58104;52.744;15.242;2023-05-16T08:10:13;100547.92;;;20.60;41.03
70555;BME280;58104;52.744;15.242;2023-05-16T08:12:38;100550.97;;;20.55;40.97
70555;BME280;58104;52.744;15.242;2023-05-16T08:15:04;100547.88;;;20.76;40.32
70555;BME280;58104;52.744;15.242;2023-05-16T08:17:29;100546.27;;;20.69;40.90
70555;BME280;58104;52.744;15.242;2023-05-16T08:19:54;100538.73;;;20.72;40.72
70555;BME280;58104;52.744;15.242;2023-05-16T08:22:20;100539.43;;;20.78;40.54
70555;BME280;58104;52.744;15.242;2023-05-16T08:24:46;100538.05;;;20.82;40.80
70555;BME280;58104;52.744;15.242;2023-05-16T08:27:11;100532.19;;;20.73;40.54
70555;BME280;58104;52.744;15.242;2023-05-16T08:29:36;100531.25;;;20.76;40.69
70555;BME280;58104;52.744;15.242;2023-05-16T08:32:08;100529.05;;;20.72;40.56
70555;BME280;58104;52.744;15.242;2023-05-16T08:34:33;100529.34;;;20.65;40.87
70555;BME280;58104;52.744;15.242;2023-05-16T08:36:52;100530.50;;;20.98;40.17
70555;BME280;58104;52.744;15.242;2023-05-16T08:39:17;100534.46;;;20.86;40.42
70555;BME280;58104;52.744;15.242;2023-05-16T08:41:43;100526.70;;;20.93;40.49
70555;BME280;58104;52.744;15.242;2023-05-16T08:44:08;100537.54;;;21.00;40.31
70555;BME280;58104;52.744;15.242;2023-05-16T08:46:35;100545.96;;;20.69;40.89
70555;BME280;58104;52.744;15.242;2023-05-16T08:49:00;100549.75;;;20.76;40.96
70555;BME280;58104;52.744;15.242;2023-05-16T08:51:27;100557.35;;;20.81;40.79
70555;BME280;58104;52.744;15.242;2023-05-16T08:53:53;100558.94;;;20.76;40.87
70555;BME280;58104;52.744;15.242;2023-05-16T08:56:17;100555.52;;;20.70;40.84
70555;BME280;58104;52.744;15.242;2023-05-16T08:58:42;100554.82;;;20.66;41.09
70555;BME280;58104;52.744;15.242;2023-05-16T09:01:08;100551.67;;;20.84;40.65
70555;BME280;58104;52.744;15.242;2023-05-16T09:03:34;100552.05;;;20.88;40.31
70555;BME280;58104;52.744;15.242;2023-05-16T09:05:59;100561.45;;;21.06;40.28
70555;BME280;58104;52.744;15.242;2023-05-16T09:08:25;100567.19;;;20.91;40.42
70555;BME280;58104;52.744;15.242;2023-05-16T09:10:51;100571.14;;;20.85;40.51
70555;BME280;58104;52.744;15.242;2023-05-16T09:13:16;100567.56;;;20.76;40.67
70555;BME280;58104;52.744;15.242;2023-05-16T09:15:41;100569.70;;;20.77;40.64
70555;BME280;58104;52.744;15.242;2023-05-16T09:18:11;100566.18;;;20.92;40.42
70555;BME280;58104;52.744;15.242;2023-05-16T09:20:32;100562.96;;;20.80;40.73
70555;BME280;58104;52.744;15.242;2023-05-16T09:22:59;100565.13;;;20.75;40.57
70555;BME280;58104;52.744;15.242;2023-05-16T09:25:24;100570.78;;;20.74;40.62
70555;BME280;58104;52.744;15.242;2023-05-16T09:27:52;100575.82;;;20.85;40.39
70555;BME280;58104;52.744;15.242;2023-05-16T09:30:14;100582.03;;;20.99;40.33
70555;BME280;58104;52.744;15.242;2023-05-16T09:32:43;100585.01;;;20.67;40.65
70555;BME280;58104;52.744;15.242;2023-05-16T09:35:05;100589.07;;;20.82;40.69
70555;BME280;58104;52.744;15.242;2023-05-16T09:37:29;100593.69;;;20.78;40.47
70555;BME280;58104;52.744;15.242;2023-05-16T09:39:55;100605.10;;;20.91;40.39
70555;BME280;58104;52.744;15.242;2023-05-16T09:42:21;100602.28;;;20.71;40.80
70555;BME280;58104;52.744;15.242;2023-05-16T09:44:47;100612.95;;;20.51;41.02
70555;BME280;58104;52.744;15.242;2023-05-16T09:47:13;100616.22;;;20.82;40.50
70555;BME280;58104;52.744;15.242;2023-05-16T09:49:37;100625.67;;;20.78;40.66
70555;BME280;58104;52.744;15.242;2023-05-16T09:52:03;100627.92;;;20.59;40.84
70555;BME280;58104;52.744;15.242;2023-05-16T09:54:29;100629.97;;;20.68;40.73
70555;BME280;58104;52.744;15.242;2023-05-16T09:56:53;100628.41;;;20.68;40.83
70555;BME280;58104;52.744;15.242;2023-05-16T09:59:18;100634.02;;;20.63;40.99
70555;BME280;58104;52.744;15.242;2023-05-16T10:01:44;100633.43;;;20.61;40.98
70555;BME280;58104;52.744;15.242;2023-05-16T10:04:09;100630.76;;;20.75;40.61
70555;BME280;58104;52.744;15.242;2023-05-16T10:06:35;100641.70;;;20.86;40.26
70555;BME280;58104;52.744;15.242;2023-05-16T10:09:00;100637.99;;;20.65;40.60
70555;BME280;58104;52.744;15.242;2023-05-16T10:11:25;100641.57;;;20.66;40.86
70555;BME280;58104;52.744;15.242;2023-05-16T10:13:51;100645.03;;;20.50;40.95
70555;BME280;58104;52.744;15.242;2023-05-16T10:16:15;100649.03;;;20.52;41.15
70555;BME280;58104;52.744;15.242;2023-05-16T10:18:41;100647.78;;;20.49;41.17
70555;BME280;58104;52.744;15.242;2023-05-16T10:21:09;100640.20;;;20.61;41.12
70555;BME280;58104;52.744;15.242;2023-05-16T10:23:32;100644.77;;;20.72;40.76
70555;BME280;58104;52.744;15.242;2023-05-16T10:25:59;100653.37;;;20.60;40.94
70555;BME280;58104;52.744;15.242;2023-05-16T10:28:23;100649.46;;;20.51;40.92
70555;BME280;58104;52.744;15.242;2023-05-16T10:30:48;100646.77;;;20.40;41.25
70555;BME280;58104;52.744;15.242;2023-05-16T10:33:15;100650.94;;;20.55;40.98
70555;BME280;58104;52.744;15.242;2023-05-16T10:35:39;100658.62;;;20.59;40.95
70555;BME280;58104;52.744;15.242;2023-05-16T10:38:05;100664.45;;;20.58;41.05
70555;BME280;58104;52.744;15.242;2023-05-16T10:40:29;100667.17;;;20.53;41.05
70555;BME280;58104;52.744;15.242;2023-05-16T10:42:55;100675.47;;;20.41;41.08
70555;BME280;58104;52.744;15.242;2023-05-16T10:45:21;100680.90;;;20.51;40.77
70555;BME280;58104;52.744;15.242;2023-05-16T10:47:51;100686.65;;;20.60;40.76
70555;BME280;58104;52.744;15.242;2023-05-16T10:50:11;100692.18;;;20.73;40.54
70555;BME280;58104;52.744;15.242;2023-05-16T10:52:36;100691.36;;;20.59;40.69
70555;BME280;58104;52.744;15.242;2023-05-16T10:55:02;100689.58;;;20.49;40.85
70555;BME280;58104;52.744;15.242;2023-05-16T10:57:27;100690.66;;;20.70;40.52
70555;BME280;58104;52.744;15.242;2023-05-16T10:59:53;100695.60;;;20.64;40.55
70555;BME280;58104;52.744;15.242;2023-05-16T11:02:24;100693.89;;;20.60;40.58
70555;BME280;58104;52.744;15.242;2023-05-16T11:04:45;100691.18;;;20.49;40.72
70555;BME280;58104;52.744;15.242;2023-05-16T11:07:09;100688.69;;;20.50;40.80
70555;BME280;58104;52.744;15.242;2023-05-16T11:09:35;100689.06;;;20.53;40.53
70555;BME280;58104;52.744;15.242;2023-05-16T11:12:01;100691.01;;;20.48;40.60
70555;BME280;58104;52.744;15.242;2023-05-16T11:14:27;100690.37;;;20.63;40.40
70555;BME280;58104;52.744;15.242;2023-05-16T11:16:58;100690.68;;;20.54;40.54
70555;BME280;58104;52.744;15.242;2023-05-16T11:26:32;100695.63;;;20.59;40.25
70555;BME280;58104;52.744;15.242;2023-05-16T11:28:57;100700.71;;;20.50;40.13
70555;BME280;58104;52.744;15.242;2023-05-16T11:31:22;100704.79;;;20.67;40.02
70555;BME280;58104;52.744;15.242;2023-05-16T11:33:48;100710.08;;;20.50;40.14
70555;BME280;58104;52.744;15.242;2023-05-16T11:36:14;100711.37;;;20.45;40.12
70555;BME280;58104;52.744;15.242;2023-05-16T11:38:39;100716.26;;;20.62;39.91
70555;BME280;58104;52.744;15.242;2023-05-16T11:41:06;100718.76;;;20.55;40.02
70555;BME280;58104;52.744;15.242;2023-05-16T11:43:36;100726.03;;;20.54;39.92
70555;BME280;58104;52.744;15.242;2023-05-16T11:45:55;100726.20;;;20.50;40.12
70555;BME280;58104;52.744;15.242;2023-05-16T11:48:22;100726.73;;;20.51;40.09
70555;BME280;58104;52.744;15.242;2023-05-16T11:50:46;100736.61;;;20.46;40.10
70555;BME280;58104;52.744;15.242;2023-05-16T11:53:11;100736.32;;;20.37;40.12
70555;BME280;58104;52.744;15.242;2023-05-16T11:55:37;100740.04;;;20.28;40.43
70555;BME280;58104;52.744;15.242;2023-05-16T11:58:02;100747.04;;;20.40;40.16
70555;BME280;58104;52.744;15.242;2023-05-16T12:00:27;100751.46;;;20.36;40.17
70555;BME280;58104;52.744;15.242;2023-05-16T12:02:57;100757.91;;;20.42;39.86
70555;BME280;58104;52.744;15.242;2023-05-16T12:05:20;100760.44;;;20.31;40.12
70555;BME280;58104;52.744;15.242;2023-05-16T12:07:45;100766.20;;;20.22;40.26
70555;BME280;58104;52.744;15.242;2023-05-16T12:10:11;100768.58;;;20.43;39.97
70555;BME280;58104;52.744;15.242;2023-05-16T12:12:35;100767.06;;;20.36;39.97
70555;BME280;58104;52.744;15.242;2023-05-16T12:15:00;100773.78;;;20.38;39.89
70555;BME280;58104;52.744;15.242;2023-05-16T12:17:26;100771.89;;;20.39;39.82
70555;BME280;58104;52.744;15.242;2023-05-16T12:19:51;100774.77;;;20.29;39.86
70555;BME280;58104;52.744;15.242;2023-05-16T12:22:17;100777.31;;;20.47;39.57
70555;BME280;58104;52.744;15.242;2023-05-16T12:24:42;100775.31;;;20.31;39.74
70555;BME280;58104;52.744;15.242;2023-05-16T12:27:07;100776.27;;;20.45;39.58
70555;BME280;58104;52.744;15.242;2023-05-16T12:29:32;100775.20;;;20.16;40.05
70555;BME280;58104;52.744;15.242;2023-05-16T12:31:59;100772.19;;;20.28;39.80
70555;BME280;58104;52.744;15.242;2023-05-16T12:34:28;100775.60;;;20.21;39.97
70555;BME280;58104;52.744;15.242;2023-05-16T12:36:51;100775.55;;;20.40;39.57